sensor_id;sensor_type;location;lat;lon;timestamp;P1;P2;P0
61760;PMS5003;47664;51.660;-0.100;2023-05-10T00:00:54;5;3;
61760;PMS5003;47664;51.660;-0.100;2023-05-10T00:03:21;3;3;
61760;PMS5003;47664;51.660;-0.100;2023-05-10T00:05:48;6;3;
61760;PMS5003;47664;51.660;-0.100;2023-05-10T00:08:16;5;5;
61760;PMS5003;47664;51.660;-0.100;2023-05-10T00:10:43;5;3;
61760;PMS5003;47664;51.660;-0.100;2023-05-10T00:13:10;5;3;
61760;PMS5003;47664;51.660;-0.100;2023-05-10T00:15:37;5;2;
61760;PMS5003;47664;51.660;-0.100;2023-05-10T00:18:04;4;4;
61760;PMS5003;47664;51.660;-0.100;2023-05-10T00:20:31;4;4;
61760;PMS5003;47664;51.660;-0.100;2023-05-10T00:22:58;6;4;
61760;PMS5003;47664;51.660;-0.100;2023-05-10T00:25:25;5;3;
61760;PMS5003;47664;51.660;-0.100;2023-05-10T00:27:52;4;4;
61760;PMS5003;47664;51.660;-0.100;2023-05-10T00:30:19;7;5;
61760;PMS5003;47664;51.660;-0.100;2023-05-10T00:32:46;6;5;
61760;PMS5003;47664;51.660;-0.100;2023-05-10T00:35:14;3;3;
61760;PMS5003;47664;51.660;-0.100;2023-05-10T00:37:41;3;3;
61760;PMS5003;47664;51.660;-0.100;2023-05-10T00:40:08;5;4;
61760;PMS5003;47664;51.660;-0.100;2023-05-10T00:42:36;4;4;
61760;PMS5003;47664;51.660;-0.100;2023-05-10T00:45:04;6;5;
61760;PMS5003;47664;51.660;-0.100;2023-05-10T00:47:32;4;3;
61760;PMS5003;47664;51.660;-0.100;2023-05-10T00:50:00;5;3;
61760;PMS5003;47664;51.660;-0.100;2023-05-10T00:52:28;5;5;
61760;PMS5003;47664;51.660;-0.100;2023-05-10T00:54:56;6;4;
61760;PMS5003;47664;51.660;-0.100;2023-05-10T00:57:23;7;4;
61760;PMS5003;47664;51.660;-0.100;2023-05-10T00:59:51;5;5;
61760;PMS5003;47664;51.660;-0.100;2023-05-10T01:02:19;4;4;
61760;PMS5003;47664;51.660;-0.100;2023-05-10T01:04:46;4;4;
61760;PMS5003;47664;51.660;-0.100;2023-05-10T01:07:15;2;2;
61760;PMS5003;47664;51.660;-0.100;2023-05-10T01:09:43;8;5;
61760;PMS5003;47664;51.660;-0.100;2023-05-10T01:12:09;3;3;
61760;PMS5003;47664;51.660;-0.100;2023-05-10T01:14:37;5;5;
61760;PMS5003;47664;51.660;-0.100;2023-05-10T01:17:04;7;6;
61760;PMS5003;47664;51.660;-0.100;2023-05-10T01:19:34;5;4;
61760;PMS5003;47664;51.660;-0.100;2023-05-10T01:22:03;5;5;
61760;PMS5003;47664;51.660;-0.100;2023-05-10T01:24:48;6;6;
61760;PMS5003;47664;51.660;-0.100;2023-05-10T01:27:43;7;7;
61760;PMS5003;47664;51.660;-0.100;2023-05-10T01:31:03;7;6;
61760;PMS5003;47664;51.660;-0.100;2023-05-10T01:33:46;6;6;
61760;PMS5003;47664;51.660;-0.100;2023-05-10T01:36:20;7;5;
61760;PMS5003;47664;51.660;-0.100;2023-05-10T01:38:57;7;5;
61760;PMS5003;47664;51.660;-0.100;2023-05-10T01:41:30;6;6;
61760;PMS5003;47664;51.660;-0.100;2023-05-10T01:44:09;5;5;
61760;PMS5003;47664;51.660;-0.100;2023-05-10T01:46:43;10;8;
61760;PMS5003;47664;51.660;-0.100;2023-05-10T01:49:18;9;6;
61760;PMS5003;47664;51.660;-0.100;2023-05-10T01:51:50;6;5;
61760;PMS5003;47664;51.660;-0.100;2023-05-10T01:54:21;9;7;
61760;PMS5003;47664;51.660;-0.100;2023-05-10T01:56:54;6;6;
61760;PMS5003;47664;51.660;-0.100;2023-05-10T01:59:28;5;5;
61760;PMS5003;47664;51.660;-0.100;2023-05-10T02:01:58;6;6;
61760;PMS5003;47664;51.660;-0.100;2023-05-10T02:04:27;5;5;
61760;PMS5003;47664;51.660;-0.100;2023-05-10T02:06:55;6;6;
61760;PMS5003;47664;51.660;-0.100;2023-05-10T02:09:24;9;7;
61760;PMS5003;47664;51.660;-0.100;2023-05-10T02:11:54;9;7;
61760;PMS5003;47664;51.660;-0.100;2023-05-10T02:14:24;9;7;
61760;PMS5003;47664;51.660;-0.100;2023-05-10T02:16:53;13;7;
61760;PMS5003;47664;51.660;-0.100;2023-05-10T02:19:22;5;5;
61760;PMS5003;47664;51.660;-0.100;2023-05-10T02:21:51;7;6;
61760;PMS5003;47664;51.660;-0.100;2023-05-10T02:24:20;5;5;
61760;PMS5003;47664;51.660;-0.100;2023-05-10T02:26:51;8;7;
61760;PMS5003;47664;51.660;-0.100;2023-05-10T02:29:21;14;6;
61760;PMS5003;47664;51.660;-0.100;2023-05-10T02:31:50;12;10;
61760;PMS5003;47664;51.660;-0.100;2023-05-10T02:34:19;10;7;
61760;PMS5003;47664;51.660;-0.100;2023-05-10T02:36:50;7;4;
61760;PMS5003;47664;51.660;-0.100;2023-05-10T02:39:19;9;9;
61760;PMS5003;47664;51.660;-0.100;2023-05-10T02:41:49;10;8;
61760;PMS5003;47664;51.660;-0.100;2023-05-10T02:44:19;10;9;
61760;PMS5003;47664;51.660;-0.100;2023-05-10T02:46:48;10;9;
61760;PMS5003;47664;51.660;-0.100;2023-05-10T02:49:15;8;8;
61760;PMS5003;47664;51.660;-0.100;2023-05-10T02:51:47;8;7;
61760;PMS5003;47664;51.660;-0.100;2023-05-10T02:54:19;7;7;
61760;PMS5003;47664;51.660;-0.100;2023-05-10T02:56:53;7;7;
61760;PMS5003;47664;51.660;-0.100;2023-05-10T02:59:25;10;9;
61760;PMS5003;47664;51.660;-0.100;2023-05-10T03:01:54;10;8;
61760;PMS5003;47664;51.660;-0.100;2023-05-10T03:04:22;9;9;
61760;PMS5003;47664;51.660;-0.100;2023-05-10T03:06:51;10;10;
61760;PMS5003;47664;51.660;-0.100;2023-05-10T03:09:19;8;7;
61760;PMS5003;47664;51.660;-0.100;2023-05-10T03:11:52;9;9;
61760;PMS5003;47664;51.660;-0.100;2023-05-10T03:14:34;13;8;
61760;PMS5003;47664;51.660;-0.100;2023-05-10T03:17:15;10;6;
61760;PMS5003;47664;51.660;-0.100;2023-05-10T03:19:50;7;5;
61760;PMS5003;47664;51.660;-0.100;2023-05-10T03:22:23;9;7;
61760;PMS5003;47664;51.660;-0.100;2023-05-10T03:24:56;8;6;
61760;PMS5003;47664;51.660;-0.100;2023-05-10T03:27:24;8;8;
61760;PMS5003;47664;51.660;-0.100;2023-05-10T03:29:53;8;7;
61760;PMS5003;47664;51.660;-0.100;2023-05-10T03:32:22;10;8;
61760;PMS5003;47664;51.660;-0.100;2023-05-10T03:34:49;8;7;
61760;PMS5003;47664;51.660;-0.100;2023-05-10T03:37:17;12;10;
61760;PMS5003;47664;51.660;-0.100;2023-05-10T03:39:44;7;7;
61760;PMS5003;47664;51.660;-0.100;2023-05-10T03:42:11;11;8;
61760;PMS5003;47664;51.660;-0.100;2023-05-10T03:44:38;10;7;
61760;PMS5003;47664;51.660;-0.100;2023-05-10T03:47:06;8;8;
61760;PMS5003;47664;51.660;-0.100;2023-05-10T03:49:33;10;8;
61760;PMS5003;47664;51.660;-0.100;2023-05-10T03:52:00;8;6;
61760;PMS5003;47664;51.660;-0.100;2023-05-10T03:54:27;10;6;
61760;PMS5003;47664;51.660;-0.100;2023-05-10T03:56:55;7;7;
61760;PMS5003;47664;51.660;-0.100;2023-05-10T03:59:22;9;9;
61760;PMS5003;47664;51.660;-0.100;2023-05-10T04:01:49;7;7;
61760;PMS5003;47664;51.660;-0.100;2023-05-10T04:04:16;9;9;
61760;PMS5003;47664;51.660;-0.100;2023-05-10T04:06:44;9;7;
61760;PMS5003;47664;51.660;-0.100;2023-05-10T04:09:11;8;6;
61760;PMS5003;47664;51.660;-0.100;2023-05-10T04:11:38;5;4;
61760;PMS5003;47664;51.660;-0.100;2023-05-10T04:14:05;9;7;
61760;PMS5003;47664;51.660;-0.100;2023-05-10T04:16:32;6;6;
61760;PMS5003;47664;51.660;-0.100;2023-05-10T04:19:00;11;10;
61760;PMS5003;47664;51.660;-0.100;2023-05-10T04:21:27;8;5;
61760;PMS5003;47664;51.660;-0.100;2023-05-10T04:23:54;9;6;
61760;PMS5003;47664;51.660;-0.100;2023-05-10T04:26:21;11;6;
61760;PMS5003;47664;51.660;-0.100;2023-05-10T04:28:49;8;5;
61760;PMS5003;47664;51.660;-0.100;2023-05-10T04:31:16;6;6;
61760;PMS5003;47664;51.660;-0.100;2023-05-10T04:33:44;5;5;
61760;PMS5003;47664;51.660;-0.100;2023-05-10T04:36:11;8;8;
61760;PMS5003;47664;51.660;-0.100;2023-05-10T04:38:39;9;9;
61760;PMS5003;47664;51.660;-0.100;2023-05-10T04:41:06;11;7;
61760;PMS5003;47664;51.660;-0.100;2023-05-10T04:43:34;10;5;
61760;PMS5003;47664;51.660;-0.100;2023-05-10T04:46:02;8;8;
61760;PMS5003;47664;51.660;-0.100;2023-05-10T04:48:30;7;5;
61760;PMS5003;47664;51.660;-0.100;2023-05-10T04:50:58;7;5;
61760;PMS5003;47664;51.660;-0.100;2023-05-10T04:53:25;11;6;
61760;PMS5003;47664;51.660;-0.100;2023-05-10T04:55:53;13;10;
61760;PMS5003;47664;51.660;-0.100;2023-05-10T04:58:20;5;5;
61760;PMS5003;47664;51.660;-0.100;2023-05-10T05:00:48;8;5;
61760;PMS5003;47664;51.660;-0.100;2023-05-10T05:03:15;10;6;
61760;PMS5003;47664;51.660;-0.100;2023-05-10T05:05:43;7;5;
61760;PMS5003;47664;51.660;-0.100;2023-05-10T05:08:11;9;7;
61760;PMS5003;47664;51.660;-0.100;2023-05-10T05:10:40;9;7;
61760;PMS5003;47664;51.660;-0.100;2023-05-10T05:13:07;6;6;
61760;PMS5003;47664;51.660;-0.100;2023-05-10T05:15:35;8;7;
61760;PMS5003;47664;51.660;-0.100;2023-05-10T05:18:03;7;5;
61760;PMS5003;47664;51.660;-0.100;2023-05-10T05:20:32;9;6;
61760;PMS5003;47664;51.660;-0.100;2023-05-10T05:23:01;6;6;
61760;PMS5003;47664;51.660;-0.100;2023-05-10T05:25:30;7;7;
61760;PMS5003;47664;51.660;-0.100;2023-05-10T05:27:59;5;5;
61760;PMS5003;47664;51.660;-0.100;2023-05-10T05:30:26;8;8;
61760;PMS5003;47664;51.660;-0.100;2023-05-10T05:32:53;6;5;
61760;PMS5003;47664;51.660;-0.100;2023-05-10T05:35:20;9;6;
61760;PMS5003;47664;51.660;-0.100;2023-05-10T05:37:48;9;4;
61760;PMS5003;47664;51.660;-0.100;2023-05-10T05:40:15;7;6;
61760;PMS5003;47664;51.660;-0.100;2023-05-10T05:42:42;8;6;
61760;PMS5003;47664;51.660;-0.100;2023-05-10T05:45:10;8;5;
61760;PMS5003;47664;51.660;-0.100;2023-05-10T05:47:38;6;6;
61760;PMS5003;47664;51.660;-0.100;2023-05-10T05:50:06;8;5;
61760;PMS5003;47664;51.660;-0.100;2023-05-10T05:52:35;10;7;
61760;PMS5003;47664;51.660;-0.100;2023-05-10T05:55:03;12;8;
61760;PMS5003;47664;51.660;-0.100;2023-05-10T05:57:34;12;7;
61760;PMS5003;47664;51.660;-0.100;2023-05-10T06:00:02;9;6;
61760;PMS5003;47664;51.660;-0.100;2023-05-10T06:02:29;11;6;
61760;PMS5003;47664;51.660;-0.100;2023-05-10T06:04:56;8;8;
61760;PMS5003;47664;51.660;-0.100;2023-05-10T06:07:24;12;8;
61760;PMS5003;47664;51.660;-0.100;2023-05-10T06:09:51;15;15;
61760;PMS5003;47664;51.660;-0.100;2023-05-10T06:12:19;10;10;
61760;PMS5003;47664;51.660;-0.100;2023-05-10T06:14:46;12;9;
61760;PMS5003;47664;51.660;-0.100;2023-05-10T06:17:14;15;12;
61760;PMS5003;47664;51.660;-0.100;2023-05-10T06:19:42;9;7;
61760;PMS5003;47664;51.660;-0.100;2023-05-10T06:22:09;11;9;
61760;PMS5003;47664;51.660;-0.100;2023-05-10T06:24:37;11;9;
61760;PMS5003;47664;51.660;-0.100;2023-05-10T06:27:05;12;9;
61760;PMS5003;47664;51.660;-0.100;2023-05-10T06:29:32;10;9;
61760;PMS5003;47664;51.660;-0.100;2023-05-10T06:31:59;9;9;
61760;PMS5003;47664;51.660;-0.100;2023-05-10T06:34:26;8;7;
61760;PMS5003;47664;51.660;-0.100;2023-05-10T06:36:54;8;7;
61760;PMS5003;47664;51.660;-0.100;2023-05-10T06:39:21;7;7;
61760;PMS5003;47664;51.660;-0.100;2023-05-10T06:41:49;12;12;
61760;PMS5003;47664;51.660;-0.100;2023-05-10T06:44:15;9;8;
61760;PMS5003;47664;51.660;-0.100;2023-05-10T06:46:43;8;8;
61760;PMS5003;47664;51.660;-0.100;2023-05-10T06:49:11;8;8;
61760;PMS5003;47664;51.660;-0.100;2023-05-10T06:51:38;10;6;
61760;PMS5003;47664;51.660;-0.100;2023-05-10T06:54:05;9;8;
61760;PMS5003;47664;51.660;-0.100;2023-05-10T06:56:32;12;12;
61760;PMS5003;47664;51.660;-0.100;2023-05-10T06:58:59;7;6;
61760;PMS5003;47664;51.660;-0.100;2023-05-10T07:01:26;9;9;
61760;PMS5003;47664;51.660;-0.100;2023-05-10T07:03:54;12;6;
61760;PMS5003;47664;51.660;-0.100;2023-05-10T07:06:21;7;7;
61760;PMS5003;47664;51.660;-0.100;2023-05-10T07:08:48;7;6;
61760;PMS5003;47664;51.660;-0.100;2023-05-10T07:11:16;8;6;
61760;PMS5003;47664;51.660;-0.100;2023-05-10T07:13:43;6;5;
61760;PMS5003;47664;51.660;-0.100;2023-05-10T07:16:10;8;6;
61760;PMS5003;47664;51.660;-0.100;2023-05-10T07:18:37;9;6;
61760;PMS5003;47664;51.660;-0.100;2023-05-10T07:21:04;8;6;
61760;PMS5003;47664;51.660;-0.100;2023-05-10T07:23:31;4;4;
61760;PMS5003;47664;51.660;-0.100;2023-05-10T07:25:58;10;7;
61760;PMS5003;47664;51.660;-0.100;2023-05-10T07:28:25;4;3;
61760;PMS5003;47664;51.660;-0.100;2023-05-10T07:30:52;6;4;
61760;PMS5003;47664;51.660;-0.100;2023-05-10T07:33:20;8;5;
61760;PMS5003;47664;51.660;-0.100;2023-05-10T07:35:47;5;5;
61760;PMS5003;47664;51.660;-0.100;2023-05-10T07:38:14;8;4;
61760;PMS5003;47664;51.660;-0.100;2023-05-10T07:40:42;6;3;
61760;PMS5003;47664;51.660;-0.100;2023-05-10T07:43:08;7;6;
61760;PMS5003;47664;51.660;-0.100;2023-05-10T07:45:35;8;5;
61760;PMS5003;47664;51.660;-0.100;2023-05-10T07:48:03;7;6;
61760;PMS5003;47664;51.660;-0.100;2023-05-10T07:50:30;5;5;
61760;PMS5003;47664;51.660;-0.100;2023-05-10T07:52:57;4;4;
61760;PMS5003;47664;51.660;-0.100;2023-05-10T07:55:24;5;5;
61760;PMS5003;47664;51.660;-0.100;2023-05-10T07:57:52;4;4;
61760;PMS5003;47664;51.660;-0.100;2023-05-10T08:00:19;7;6;
61760;PMS5003;47664;51.660;-0.100;2023-05-10T08:02:47;3;3;
61760;PMS5003;47664;51.660;-0.100;2023-05-10T08:05:14;8;5;
61760;PMS5003;47664;51.660;-0.100;2023-05-10T08:07:42;3;3;
61760;PMS5003;47664;51.660;-0.100;2023-05-10T08:10:09;2;1;
61760;PMS5003;47664;51.660;-0.100;2023-05-10T08:12:36;5;2;
61760;PMS5003;47664;51.660;-0.100;2023-05-10T08:15:03;5;2;
61760;PMS5003;47664;51.660;-0.100;2023-05-10T08:17:31;7;3;
61760;PMS5003;47664;51.660;-0.100;2023-05-10T08:19:58;2;1;
61760;PMS5003;47664;51.660;-0.100;2023-05-10T08:22:25;3;3;
61760;PMS5003;47664;51.660;-0.100;2023-05-10T08:24:52;6;4;
61760;PMS5003;47664;51.660;-0.100;2023-05-10T08:27:19;6;2;
61760;PMS5003;47664;51.660;-0.100;2023-05-10T08:29:47;4;3;
61760;PMS5003;47664;51.660;-0.100;2023-05-10T08:32:14;6;4;
61760;PMS5003;47664;51.660;-0.100;2023-05-10T08:34:41;8;3;
61760;PMS5003;47664;51.660;-0.100;2023-05-10T08:37:09;2;2;
61760;PMS5003;47664;51.660;-0.100;2023-05-10T08:39:36;3;3;
61760;PMS5003;47664;51.660;-0.100;2023-05-10T08:42:04;7;6;
61760;PMS5003;47664;51.660;-0.100;2023-05-10T08:44:32;5;2;
61760;PMS5003;47664;51.660;-0.100;2023-05-10T08:47:02;11;8;
61760;PMS5003;47664;51.660;-0.100;2023-05-10T08:49:32;2;2;
61760;PMS5003;47664;51.660;-0.100;2023-05-10T08:52:01;3;1;
61760;PMS5003;47664;51.660;-0.100;2023-05-10T08:54:31;5;2;
61760;PMS5003;47664;51.660;-0.100;2023-05-10T08:56:59;3;3;
61760;PMS5003;47664;51.660;-0.100;2023-05-10T08:59:27;2;2;
61760;PMS5003;47664;51.660;-0.100;2023-05-10T09:01:56;3;3;
61760;PMS5003;47664;51.660;-0.100;2023-05-10T09:04:25;2;2;
61760;PMS5003;47664;51.660;-0.100;2023-05-10T09:06:53;4;2;
61760;PMS5003;47664;51.660;-0.100;2023-05-10T09:09:21;6;5;
61760;PMS5003;47664;51.660;-0.100;2023-05-10T09:11:50;6;4;
61760;PMS5003;47664;51.660;-0.100;2023-05-10T09:14:18;7;4;
61760;PMS5003;47664;51.660;-0.100;2023-05-10T09:16:46;2;2;
61760;PMS5003;47664;51.660;-0.100;2023-05-10T09:19:14;3;3;
61760;PMS5003;47664;51.660;-0.100;2023-05-10T09:21:42;4;3;
61760;PMS5003;47664;51.660;-0.100;2023-05-10T09:24:09;4;3;
61760;PMS5003;47664;51.660;-0.100;2023-05-10T09:26:42;3;3;
61760;PMS5003;47664;51.660;-0.100;2023-05-10T09:29:13;1;1;
61760;PMS5003;47664;51.660;-0.100;2023-05-10T09:31:44;1;1;
61760;PMS5003;47664;51.660;-0.100;2023-05-10T09:34:15;3;2;
61760;PMS5003;47664;51.660;-0.100;2023-05-10T09:36:52;5;2;
61760;PMS5003;47664;51.660;-0.100;2023-05-10T09:39:20;5;2;
61760;PMS5003;47664;51.660;-0.100;2023-05-10T09:41:55;4;2;
61760;PMS5003;47664;51.660;-0.100;2023-05-10T09:44:25;10;7;
61760;PMS5003;47664;51.660;-0.100;2023-05-10T09:46:52;2;2;
61760;PMS5003;47664;51.660;-0.100;2023-05-10T09:49:20;5;5;
61760;PMS5003;47664;51.660;-0.100;2023-05-10T09:51:57;5;3;
61760;PMS5003;47664;51.660;-0.100;2023-05-10T09:54:27;5;3;
61760;PMS5003;47664;51.660;-0.100;2023-05-10T09:56:55;5;4;
61760;PMS5003;47664;51.660;-0.100;2023-05-10T09:59:22;1;1;
61760;PMS5003;47664;51.660;-0.100;2023-05-10T10:01:52;4;2;
61760;PMS5003;47664;51.660;-0.100;2023-05-10T10:04:22;2;1;
61760;PMS5003;47664;51.660;-0.100;2023-05-10T10:06:58;7;5;
61760;PMS5003;47664;51.660;-0.100;2023-05-10T10:09:26;0;0;
61760;PMS5003;47664;51.660;-0.100;2023-05-10T10:11:54;2;2;
61760;PMS5003;47664;51.660;-0.100;2023-05-10T10:14:22;5;2;
61760;PMS5003;47664;51.660;-0.100;2023-05-10T10:16:49;1;1;
61760;PMS5003;47664;51.660;-0.100;2023-05-10T10:19:18;3;2;
61760;PMS5003;47664;51.660;-0.100;2023-05-10T10:21:45;3;1;
61760;PMS5003;47664;51.660;-0.100;2023-05-10T10:24:12;1;1;
61760;PMS5003;47664;51.660;-0.100;2023-05-10T10:26:40;5;4;
61760;PMS5003;47664;51.660;-0.100;2023-05-10T10:29:11;5;3;
61760;PMS5003;47664;51.660;-0.100;2023-05-10T10:31:50;3;3;
61760;PMS5003;47664;51.660;-0.100;2023-05-10T10:34:25;3;1;
61760;PMS5003;47664;51.660;-0.100;2023-05-10T10:36:53;3;0;
61760;PMS5003;47664;51.660;-0.100;2023-05-10T10:39:23;2;2;
61760;PMS5003;47664;51.660;-0.100;2023-05-10T10:41:51;3;3;
61760;PMS5003;47664;51.660;-0.100;2023-05-10T10:44:23;4;4;
61760;PMS5003;47664;51.660;-0.100;2023-05-10T10:47:02;3;2;
61760;PMS5003;47664;51.660;-0.100;2023-05-10T10:49:32;1;1;
61760;PMS5003;47664;51.660;-0.100;2023-05-10T10:52:37;1;1;
61760;PMS5003;47664;51.660;-0.100;2023-05-10T10:55:05;2;1;
61760;PMS5003;47664;51.660;-0.100;2023-05-10T10:57:43;2;1;
61760;PMS5003;47664;51.660;-0.100;2023-05-10T11:00:20;3;3;
61760;PMS5003;47664;51.660;-0.100;2023-05-10T11:02:50;1;1;
61760;PMS5003;47664;51.660;-0.100;2023-05-10T11:05:35;4;3;
61760;PMS5003;47664;51.660;-0.100;2023-05-10T11:08:07;3;1;
61760;PMS5003;47664;51.660;-0.100;2023-05-10T11:10:38;2;2;
61760;PMS5003;47664;51.660;-0.100;2023-05-10T11:13:07;3;3;
61760;PMS5003;47664;51.660;-0.100;2023-05-10T11:15:35;4;4;
61760;PMS5003;47664;51.660;-0.100;2023-05-10T11:18:20;9;7;
61760;PMS5003;47664;51.660;-0.100;2023-05-10T11:20:50;7;3;
61760;PMS5003;47664;51.660;-0.100;2023-05-10T11:23:18;1;1;
61760;PMS5003;47664;51.660;-0.100;2023-05-10T11:25:46;3;3;
61760;PMS5003;47664;51.660;-0.100;2023-05-10T11:28:17;4;3;
61760;PMS5003;47664;51.660;-0.100;2023-05-10T11:30:44;4;2;
61760;PMS5003;47664;51.660;-0.100;2023-05-10T11:33:15;4;2;
61760;PMS5003;47664;51.660;-0.100;2023-05-10T11:35:43;1;1;
61760;PMS5003;47664;51.660;-0.100;2023-05-10T11:38:11;2;2;
61760;PMS5003;47664;51.660;-0.100;2023-05-10T11:40:40;4;2;
61760;PMS5003;47664;51.660;-0.100;2023-05-10T11:43:08;5;2;
61760;PMS5003;47664;51.660;-0.100;2023-05-10T11:45:36;2;2;
61760;PMS5003;47664;51.660;-0.100;2023-05-10T11:48:04;0;0;
61760;PMS5003;47664;51.660;-0.100;2023-05-10T11:50:31;4;1;
61760;PMS5003;47664;51.660;-0.100;2023-05-10T11:52:58;3;1;
61760;PMS5003;47664;51.660;-0.100;2023-05-10T11:55:26;7;6;
61760;PMS5003;47664;51.660;-0.100;2023-05-10T11:57:54;2;2;
61760;PMS5003;47664;51.660;-0.100;2023-05-10T12:00:21;2;2;
61760;PMS5003;47664;51.660;-0.100;2023-05-10T12:02:49;1;1;
61760;PMS5003;47664;51.660;-0.100;2023-05-10T12:05:16;2;2;
61760;PMS5003;47664;51.660;-0.100;2023-05-10T12:07:44;7;4;
61760;PMS5003;47664;51.660;-0.100;2023-05-10T12:10:11;4;1;
61760;PMS5003;47664;51.660;-0.100;2023-05-10T12:12:40;2;1;
61760;PMS5003;47664;51.660;-0.100;2023-05-10T12:15:12;2;2;
61760;PMS5003;47664;51.660;-0.100;2023-05-10T12:17:44;1;1;
61760;PMS5003;47664;51.660;-0.100;2023-05-10T12:20:13;0;0;
61760;PMS5003;47664;51.660;-0.100;2023-05-10T12:22:43;1;1;
61760;PMS5003;47664;51.660;-0.100;2023-05-10T12:25:13;2;0;
61760;PMS5003;47664;51.660;-0.100;2023-05-10T12:27:39;3;2;
61760;PMS5003;47664;51.660;-0.100;2023-05-10T12:30:08;3;3;
61760;PMS5003;47664;51.660;-0.100;2023-05-10T12:32:37;8;5;
61760;PMS5003;47664;51.660;-0.100;2023-05-10T12:35:06;4;4;
61760;PMS5003;47664;51.660;-0.100;2023-05-10T12:37:34;4;2;
61760;PMS5003;47664;51.660;-0.100;2023-05-10T12:40:02;5;2;
61760;PMS5003;47664;51.660;-0.100;2023-05-10T12:42:29;1;1;
61760;PMS5003;47664;51.660;-0.100;2023-05-10T12:44:56;3;3;
61760;PMS5003;47664;51.660;-0.100;2023-05-10T12:47:23;9;3;
61760;PMS5003;47664;51.660;-0.100;2023-05-10T12:49:50;3;3;
61760;PMS5003;47664;51.660;-0.100;2023-05-10T12:52:17;2;2;
61760;PMS5003;47664;51.660;-0.100;2023-05-10T12:54:45;10;7;
61760;PMS5003;47664;51.660;-0.100;2023-05-10T12:57:12;4;2;
61760;PMS5003;47664;51.660;-0.100;2023-05-10T12:59:40;2;2;
61760;PMS5003;47664;51.660;-0.100;2023-05-10T13:02:08;4;1;
61760;PMS5003;47664;51.660;-0.100;2023-05-10T13:04:35;4;2;
61760;PMS5003;47664;51.660;-0.100;2023-05-10T13:07:02;3;3;
61760;PMS5003;47664;51.660;-0.100;2023-05-10T13:09:29;3;3;
61760;PMS5003;47664;51.660;-0.100;2023-05-10T13:11:56;3;3;
61760;PMS5003;47664;51.660;-0.100;2023-05-10T13:14:23;4;4;
61760;PMS5003;47664;51.660;-0.100;2023-05-10T13:16:51;1;1;
61760;PMS5003;47664;51.660;-0.100;2023-05-10T13:19:19;3;3;
61760;PMS5003;47664;51.660;-0.100;2023-05-10T13:21:46;1;1;
61760;PMS5003;47664;51.660;-0.100;2023-05-10T13:24:13;1;1;
61760;PMS5003;47664;51.660;-0.100;2023-05-10T13:26:40;2;2;
61760;PMS5003;47664;51.660;-0.100;2023-05-10T13:29:07;3;3;
61760;PMS5003;47664;51.660;-0.100;2023-05-10T13:31:35;2;2;
61760;PMS5003;47664;51.660;-0.100;2023-05-10T13:34:03;2;2;
61760;PMS5003;47664;51.660;-0.100;2023-05-10T13:36:31;5;2;
61760;PMS5003;47664;51.660;-0.100;2023-05-10T13:38:58;4;4;
61760;PMS5003;47664;51.660;-0.100;2023-05-10T13:41:25;3;3;
61760;PMS5003;47664;51.660;-0.100;2023-05-10T13:43:53;4;4;
61760;PMS5003;47664;51.660;-0.100;2023-05-10T13:46:20;10;6;
61760;PMS5003;47664;51.660;-0.100;2023-05-10T13:48:47;5;5;
61760;PMS5003;47664;51.660;-0.100;2023-05-10T13:51:14;7;5;
61760;PMS5003;47664;51.660;-0.100;2023-05-10T13:53:42;8;4;
61760;PMS5003;47664;51.660;-0.100;2023-05-10T13:56:09;5;3;
61760;PMS5003;47664;51.660;-0.100;2023-05-10T13:58:35;3;3;
61760;PMS5003;47664;51.660;-0.100;2023-05-10T14:01:02;2;1;
61760;PMS5003;47664;51.660;-0.100;2023-05-10T14:03:30;1;1;
61760;PMS5003;47664;51.660;-0.100;2023-05-10T14:05:58;0;0;
61760;PMS5003;47664;51.660;-0.100;2023-05-10T14:08:25;2;1;
61760;PMS5003;47664;51.660;-0.100;2023-05-10T14:10:52;1;1;
61760;PMS5003;47664;51.660;-0.100;2023-05-10T14:13:19;2;2;
61760;PMS5003;47664;51.660;-0.100;2023-05-10T14:15:47;2;2;
61760;PMS5003;47664;51.660;-0.100;2023-05-10T14:18:14;4;3;
61760;PMS5003;47664;51.660;-0.100;2023-05-10T14:20:42;1;1;
61760;PMS5003;47664;51.660;-0.100;2023-05-10T14:23:09;1;1;
61760;PMS5003;47664;51.660;-0.100;2023-05-10T14:25:36;1;1;
61760;PMS5003;47664;51.660;-0.100;2023-05-10T14:28:03;2;2;
61760;PMS5003;47664;51.660;-0.100;2023-05-10T14:30:31;2;2;
61760;PMS5003;47664;51.660;-0.100;2023-05-10T14:32:59;3;3;
61760;PMS5003;47664;51.660;-0.100;2023-05-10T14:35:25;1;0;
61760;PMS5003;47664;51.660;-0.100;2023-05-10T14:37:53;3;1;
61760;PMS5003;47664;51.660;-0.100;2023-05-10T14:40:20;5;2;
61760;PMS5003;47664;51.660;-0.100;2023-05-10T14:42:48;5;3;
61760;PMS5003;47664;51.660;-0.100;2023-05-10T14:45:16;5;4;
61760;PMS5003;47664;51.660;-0.100;2023-05-10T14:47:43;2;2;
61760;PMS5003;47664;51.660;-0.100;2023-05-10T14:50:10;6;2;
61760;PMS5003;47664;51.660;-0.100;2023-05-10T14:52:37;1;1;
61760;PMS5003;47664;51.660;-0.100;2023-05-10T14:55:05;5;4;
61760;PMS5003;47664;51.660;-0.100;2023-05-10T14:57:33;2;2;
61760;PMS5003;47664;51.660;-0.100;2023-05-10T15:00:01;2;2;
61760;PMS5003;47664;51.660;-0.100;2023-05-10T15:02:29;4;3;
61760;PMS5003;47664;51.660;-0.100;2023-05-10T15:04:56;0;0;
61760;PMS5003;47664;51.660;-0.100;2023-05-10T15:07:23;3;2;
61760;PMS5003;47664;51.660;-0.100;2023-05-10T15:09:51;3;1;
61760;PMS5003;47664;51.660;-0.100;2023-05-10T15:12:18;2;2;
61760;PMS5003;47664;51.660;-0.100;2023-05-10T15:14:46;1;1;
61760;PMS5003;47664;51.660;-0.100;2023-05-10T15:17:12;4;2;
61760;PMS5003;47664;51.660;-0.100;2023-05-10T15:19:41;6;1;
61760;PMS5003;47664;51.660;-0.100;2023-05-10T15:22:08;2;1;
61760;PMS5003;47664;51.660;-0.100;2023-05-10T15:24:36;3;2;
61760;PMS5003;47664;51.660;-0.100;2023-05-10T15:27:03;3;3;
61760;PMS5003;47664;51.660;-0.100;2023-05-10T15:29:30;5;2;
61760;PMS5003;47664;51.660;-0.100;2023-05-10T15:31:57;4;2;
61760;PMS5003;47664;51.660;-0.100;2023-05-10T15:34:24;6;3;
61760;PMS5003;47664;51.660;-0.100;2023-05-10T15:36:52;4;2;
61760;PMS5003;47664;51.660;-0.100;2023-05-10T15:39:19;3;3;
61760;PMS5003;47664;51.660;-0.100;2023-05-10T15:41:46;2;2;
61760;PMS5003;47664;51.660;-0.100;2023-05-10T15:44:13;4;0;
61760;PMS5003;47664;51.660;-0.100;2023-05-10T15:46:40;5;4;
61760;PMS5003;47664;51.660;-0.100;2023-05-10T15:49:07;5;4;
61760;PMS5003;47664;51.660;-0.100;2023-05-10T15:51:34;4;4;
61760;PMS5003;47664;51.660;-0.100;2023-05-10T15:54:01;4;3;
61760;PMS5003;47664;51.660;-0.100;2023-05-10T15:56:28;3;1;
61760;PMS5003;47664;51.660;-0.100;2023-05-10T15:58:55;2;1;
61760;PMS5003;47664;51.660;-0.100;2023-05-10T16:01:22;4;0;
61760;PMS5003;47664;51.660;-0.100;2023-05-10T16:03:49;6;3;
61760;PMS5003;47664;51.660;-0.100;2023-05-10T16:06:17;2;2;
61760;PMS5003;47664;51.660;-0.100;2023-05-10T16:08:44;6;2;
61760;PMS5003;47664;51.660;-0.100;2023-05-10T16:11:11;2;1;
61760;PMS5003;47664;51.660;-0.100;2023-05-10T16:13:38;4;2;
61760;PMS5003;47664;51.660;-0.100;2023-05-10T16:16:05;4;3;
61760;PMS5003;47664;51.660;-0.100;2023-05-10T16:18:33;1;1;
61760;PMS5003;47664;51.660;-0.100;2023-05-10T16:21:00;3;3;
61760;PMS5003;47664;51.660;-0.100;2023-05-10T16:23:28;1;1;
61760;PMS5003;47664;51.660;-0.100;2023-05-10T16:25:55;2;2;
61760;PMS5003;47664;51.660;-0.100;2023-05-10T16:28:22;4;2;
61760;PMS5003;47664;51.660;-0.100;2023-05-10T16:30:50;1;1;
61760;PMS5003;47664;51.660;-0.100;2023-05-10T16:33:17;2;2;
61760;PMS5003;47664;51.660;-0.100;2023-05-10T16:35:44;1;1;
61760;PMS5003;47664;51.660;-0.100;2023-05-10T16:38:11;1;1;
61760;PMS5003;47664;51.660;-0.100;2023-05-10T16:40:38;2;1;